< < Back
Terminal Aerodrome Forecast


Current Version              Previous Versions:   1  2  3  4  5  6  7  8  9  

Terminal Aerodrome Forecast

583
FTAK31 PAJN 271602 AAB
TAFAGS
TAF AMD
PAGS 271602Z 2716/2812 VRB03KT P6SM VCSH SCT003 OVC035
      TEMPO 2716/2718 6SM BR OVC003
     FM271800 21006KT P6SM SCT060 BKN120
     FM280400 VRB03KT P6SM SCT050 BKN100
      AMD LTD TO CLD VIS AND WIND=



Latest METAR

148
SAUS70 KWBC 271800 RRX
MTRAGS
METAR KAGS 271753Z 14008KT 10SM CLR 33/22 A3003 RMK AO2 SLP165 T03330222
10339 20244 58017


USA.gov is the U.S. government's official web portal to all federal, state and local government web resources and services.